Time;durP1;ratioP1;P1;durP2;ratioP2;P2;SDS_P1;SDS_P2;PMS_P1;PMS_P2;Temp;Humidity;BMP_temperature;BMP_pressure;BME280_temperature;BME280_humidity;BME280_pressure;Samples;Min_cycle;Max_cycle;Signal;HPM_P1;HPM_P2
2021/01/08 00:00:11;;;;;;;10.60;9.20;;;4.60;99.90;;;;;;6094727;23;20408;-79
2021/01/08 00:02:37;;;;;;;11.27;8.80;;;4.60;99.90;;;;;;6094563;23;20640;-79
2021/01/08 00:05:04;;;;;;;9.70;8.57;;;4.60;99.90;;;;;;6094435;23;20589;-80
2021/01/08 00:07:34;;;;;;;12.13;9.50;;;4.60;99.90;;;;;;6094378;23;20416;-81
2021/01/08 00:10:01;;;;;;;11.20;8.77;;;4.60;99.90;;;;;;6091423;23;20427;-82
2021/01/08 00:12:31;;;;;;;11.20;8.13;;;4.60;99.90;;;;;;6091130;23;21393;-80
2021/01/08 00:14:58;;;;;;;14.30;9.47;;;4.60;99.90;;;;;;6092422;23;20580;-81
2021/01/08 00:17:25;;;;;;;11.17;9.40;;;4.60;99.90;;;;;;6093815;23;20408;-80
2021/01/08 00:19:55;;;;;;;11.70;8.90;;;4.60;99.90;;;;;;6096794;23;20419;-79
2021/01/08 00:22:23;;;;;;;10.67;9.17;;;4.50;99.90;;;;;;6097429;23;20459;-80
2021/01/08 00:24:51;;;;;;;11.90;9.53;;;4.50;99.90;;;;;;6101081;23;20393;-80
2021/01/08 00:27:19;;;;;;;11.70;9.20;;;4.50;99.90;;;;;;6115370;23;20404;-79
2021/01/08 00:29:46;;;;;;;10.97;8.90;;;4.50;99.90;;;;;;6115138;23;20413;-77
2021/01/08 00:32:16;;;;;;;9.97;8.23;;;4.50;99.90;;;;;;6113284;23;20563;-78
2021/01/08 00:34:43;;;;;;;9.03;8.03;;;4.50;99.90;;;;;;6103158;23;20441;-82
2021/01/08 00:37:09;;;;;;;10.97;9.13;;;4.50;99.90;;;;;;6098591;23;20469;-78
2021/01/08 00:39:36;;;;;;;11.20;8.80;;;4.50;99.90;;;;;;6115555;23;20432;-79
2021/01/08 00:42:04;;;;;;;11.50;9.67;;;4.50;99.90;;;;;;6114346;23;20417;-79
2021/01/08 00:44:30;;;;;;;10.37;8.50;;;4.50;99.90;;;;;;6115037;23;20425;-79
2021/01/08 00:46:56;;;;;;;10.07;8.70;;;4.50;99.90;;;;;;6111454;23;20407;-78
2021/01/08 00:49:23;;;;;;;11.20;9.20;;;4.40;99.90;;;;;;6093062;23;20416;-81
2021/01/08 00:51:49;;;;;;;8.87;7.83;;;4.40;99.90;;;;;;6094382;23;20412;-81
2021/01/08 00:54:15;;;;;;;10.30;8.67;;;4.40;99.90;;;;;;6091845;23;20793;-78
2021/01/08 00:56:41;;;;;;;10.10;7.80;;;4.40;99.90;;;;;;6092889;23;20416;-81
2021/01/08 00:59:08;;;;;;;10.00;7.57;;;4.40;99.90;;;;;;6093818;23;20448;-80
2021/01/08 01:01:34;;;;;;;9.77;7.60;;;4.30;99.90;;;;;;6093015;23;20933;-81
2021/01/08 01:04:01;;;;;;;7.87;6.50;;;4.30;99.90;;;;;;6092383;23;20464;-79
2021/01/08 01:06:29;;;;;;;9.33;7.80;;;4.30;99.90;;;;;;6092007;23;20512;-83
2021/01/08 01:08:56;;;;;;;10.80;8.33;;;4.30;99.90;;;;;;6094807;23;20425;-83
2021/01/08 01:11:23;;;;;;;9.00;7.77;;;4.30;99.90;;;;;;6097888;23;20416;-82
2021/01/08 01:13:52;;;;;;;9.80;8.20;;;4.30;99.90;;;;;;6092927;23;20452;-83
2021/01/08 01:16:20;;;;;;;9.70;7.43;;;4.30;99.90;;;;;;6097121;23;21240;-80
2021/01/08 01:18:48;;;;;;;10.00;7.60;;;4.30;99.90;;;;;;6096016;23;20715;-80
2021/01/08 01:21:15;;;;;;;7.70;6.90;;;4.30;99.90;;;;;;6094945;23;20480;-82
2021/01/08 01:26:47;;;;;;;8.40;6.80;;;4.30;99.90;;;;;;6182043;23;20469;-80
2021/01/08 01:29:13;;;;;;;8.97;7.13;;;4.30;99.90;;;;;;6180638;23;20923;-83
2021/01/08 01:31:39;;;;;;;10.10;7.80;;;4.20;99.90;;;;;;6182209;23;20466;-83
2021/01/08 01:34:06;;;;;;;8.53;6.97;;;4.20;99.90;;;;;;6150720;23;20439;-81
2021/01/08 01:36:32;;;;;;;8.23;7.37;;;4.20;99.90;;;;;;6126257;23;20398;-81
2021/01/08 01:38:58;;;;;;;9.97;6.70;;;4.20;99.90;;;;;;6152854;23;20410;-84
2021/01/08 01:41:24;;;;;;;8.20;6.80;;;4.20;99.90;;;;;;6152652;23;20417;-83
2021/01/08 01:43:50;;;;;;;9.17;7.20;;;4.20;99.90;;;;;;6126329;23;21014;-80
2021/01/08 01:46:21;;;;;;;11.13;7.20;;;4.20;99.90;;;;;;6159398;23;20475;-83
2021/01/08 01:48:51;;;;;;;8.43;6.53;;;4.20;99.90;;;;;;6159947;23;20482;-80
2021/01/08 01:51:20;;;;;;;8.83;7.33;;;4.20;99.90;;;;;;6145857;23;20762;-80
2021/01/08 01:53:48;;;;;;;8.40;6.93;;;4.30;99.90;;;;;;6158713;23;20478;-82
2021/01/08 01:56:15;;;;;;;11.17;8.23;;;4.30;99.90;;;;;;6158040;23;20407;-79
2021/01/08 01:58:41;;;;;;;7.90;7.03;;;4.30;99.90;;;;;;6131131;23;20422;-80
2021/01/08 02:01:10;;;;;;;8.23;7.20;;;4.30;99.90;;;;;;6158400;23;20433;-81
2021/01/08 02:03:46;;;;;;;7.63;6.53;;;4.20;99.90;;;;;;6155656;23;20473;-82
2021/01/08 02:06:18;;;;;;;6.90;6.10;;;4.20;99.90;;;;;;6155467;23;20883;-83
2021/01/08 02:08:50;;;;;;;9.07;6.53;;;4.20;99.90;;;;;;6154871;23;20427;-80
2021/01/08 02:11:21;;;;;;;9.27;7.23;;;4.20;99.90;;;;;;6154522;23;20741;-82
2021/01/08 02:14:02;;;;;;;6.87;6.27;;;4.20;99.90;;;;;;6129080;23;20454;-82
2021/01/08 02:16:31;;;;;;;8.57;7.30;;;4.30;99.90;;;;;;6153389;23;20911;-81
2021/01/08 02:18:57;;;;;;;7.30;6.50;;;4.30;99.90;;;;;;6153150;23;20475;-79
2021/01/08 02:21:43;;;;;;;7.13;6.43;;;4.20;99.90;;;;;;6125783;23;20410;-81
2021/01/08 02:24:32;;;;;;;7.27;6.57;;;4.30;99.90;;;;;;6151690;23;20463;-82
2021/01/08 02:26:59;;;;;;;7.47;6.70;;;4.30;99.90;;;;;;6152980;23;20395;-79
2021/01/08 02:29:26;;;;;;;6.73;6.03;;;4.20;99.90;;;;;;6152374;23;20937;-79
2021/01/08 02:31:54;;;;;;;6.73;6.10;;;4.20;99.90;;;;;;6151674;23;20414;-80
2021/01/08 02:34:23;;;;;;;6.70;5.73;;;4.20;99.90;;;;;;6152290;23;20446;-79
2021/01/08 02:36:50;;;;;;;7.00;6.30;;;4.20;99.90;;;;;;6126854;23;20407;-81
2021/01/08 02:39:17;;;;;;;6.87;6.17;;;4.20;99.90;;;;;;6152471;23;20411;-80
2021/01/08 02:41:46;;;;;;;7.30;6.60;;;4.20;99.90;;;;;;6152681;23;20411;-83
2021/01/08 02:44:16;;;;;;;6.07;5.47;;;4.20;99.90;;;;;;6126499;23;20445;-78
2021/01/08 02:46:43;;;;;;;6.93;5.90;;;4.20;99.90;;;;;;6155203;23;20442;-80
2021/01/08 02:49:10;;;;;;;6.20;5.60;;;4.20;99.90;;;;;;6127775;23;20485;-80
2021/01/08 02:51:37;;;;;;;6.77;5.87;;;4.20;99.90;;;;;;6154243;23;20965;-83
2021/01/08 02:54:04;;;;;;;6.20;5.60;;;4.20;99.90;;;;;;6158545;23;20737;-80
2021/01/08 02:56:40;;;;;;;6.13;5.17;;;4.20;99.90;;;;;;6152581;23;20507;-82
2021/01/08 02:59:08;;;;;;;5.93;5.43;;;4.10;99.90;;;;;;6152961;23;20391;-82
2021/01/08 03:01:36;;;;;;;5.50;4.83;;;4.10;99.90;;;;;;6152188;23;20399;-79
2021/01/08 03:04:03;;;;;;;5.80;5.20;;;4.20;99.90;;;;;;6152167;23;20466;-81
2021/01/08 03:06:30;;;;;;;5.67;5.10;;;4.10;99.90;;;;;;6126945;23;20431;-81
2021/01/08 03:08:58;;;;;;;5.73;5.13;;;4.20;99.90;;;;;;6154028;23;20415;-81
2021/01/08 03:11:24;;;;;;;6.03;5.50;;;4.20;99.90;;;;;;6159970;23;20405;-83
2021/01/08 03:13:52;;;;;;;6.10;5.30;;;4.10;99.90;;;;;;6155141;23;20454;-81
2021/01/08 03:16:18;;;;;;;5.73;5.23;;;4.20;99.90;;;;;;6153834;23;20414;-80
2021/01/08 03:18:45;;;;;;;5.90;5.30;;;4.20;99.90;;;;;;6129141;23;20791;-82
2021/01/08 03:21:11;;;;;;;6.33;5.73;;;4.20;99.90;;;;;;6154178;23;20395;-80
2021/01/08 03:23:39;;;;;;;6.23;5.63;;;4.20;99.90;;;;;;6125671;23;20427;-78
2021/01/08 03:26:05;;;;;;;6.03;5.47;;;4.20;99.90;;;;;;6125395;23;20893;-80
2021/01/08 03:28:31;;;;;;;6.27;5.77;;;4.20;99.90;;;;;;6153339;23;20423;-82
2021/01/08 03:30:58;;;;;;;5.97;5.47;;;4.10;99.90;;;;;;6153970;23;20459;-78
2021/01/08 03:33:24;;;;;;;5.87;5.33;;;4.10;99.90;;;;;;6153766;23;20456;-82
2021/01/08 03:35:50;;;;;;;5.40;4.90;;;4.10;99.90;;;;;;6162970;23;20729;-79
2021/01/08 03:38:16;;;;;;;5.73;5.23;;;4.10;99.90;;;;;;6162016;23;20411;-82
2021/01/08 03:40:42;;;;;;;6.07;5.57;;;4.10;99.90;;;;;;6135382;23;21061;-82
2021/01/08 03:43:10;;;;;;;6.60;5.97;;;4.10;99.90;;;;;;6129207;23;20445;-79
2021/01/08 03:45:37;;;;;;;5.50;5.03;;;4.00;99.90;;;;;;6158012;23;20421;-79
2021/01/08 03:48:04;;;;;;;6.33;5.77;;;4.00;99.90;;;;;;6129201;23;20919;-80
2021/01/08 03:50:31;;;;;;;5.80;5.30;;;4.10;99.90;;;;;;6128919;23;20428;-78
2021/01/08 03:52:57;;;;;;;7.20;6.50;;;4.00;99.90;;;;;;6128779;23;20471;-80
2021/01/08 03:55:23;;;;;;;6.83;6.23;;;4.00;99.90;;;;;;6155235;23;20410;-78
2021/01/08 03:57:50;;;;;;;7.10;6.40;;;4.10;99.90;;;;;;6153258;23;20494;-80
2021/01/08 04:00:16;;;;;;;6.40;5.80;;;4.00;99.90;;;;;;6151860;23;20473;-81
2021/01/08 04:02:42;;;;;;;6.53;5.93;;;4.00;99.90;;;;;;6156651;23;20518;-80
2021/01/08 04:05:09;;;;;;;6.83;6.13;;;4.00;99.90;;;;;;6151978;23;20949;-78
2021/01/08 04:07:35;;;;;;;7.13;6.43;;;4.00;99.90;;;;;;6150228;23;20828;-82
2021/01/08 04:10:02;;;;;;;7.10;6.40;;;4.00;99.90;;;;;;6162178;23;20413;-78
2021/01/08 04:12:28;;;;;;;6.87;6.17;;;4.00;99.90;;;;;;6166240;23;20479;-79
2021/01/08 04:14:54;;;;;;;7.37;6.67;;;4.00;99.90;;;;;;6127144;23;20776;-79
2021/01/08 04:17:20;;;;;;;7.20;6.40;;;3.90;99.90;;;;;;6153394;23;20724;-79
2021/01/08 04:19:46;;;;;;;8.80;7.10;;;3.90;99.90;;;;;;6149675;23;20445;-80
2021/01/08 04:22:13;;;;;;;7.57;6.87;;;3.80;99.90;;;;;;6125157;23;20769;-81
2021/01/08 04:24:39;;;;;;;9.00;7.27;;;3.80;99.90;;;;;;6152909;23;20449;-77
2021/01/08 04:27:05;;;;;;;7.83;7.10;;;3.90;99.90;;;;;;6152830;23;20405;-77
2021/01/08 04:29:32;;;;;;;7.80;7.00;;;3.80;99.90;;;;;;6125549;23;20902;-78
2021/01/08 04:31:58;;;;;;;9.60;8.23;;;3.90;99.90;;;;;;6153888;23;20395;-78
2021/01/08 04:34:24;;;;;;;8.40;7.50;;;3.90;99.90;;;;;;6148968;23;20453;-81
2021/01/08 04:36:50;;;;;;;6.77;6.07;;;3.90;99.90;;;;;;6126811;23;20418;-78
2021/01/08 04:39:17;;;;;;;7.60;6.80;;;3.90;99.90;;;;;;6121946;23;20498;-79
2021/01/08 04:41:43;;;;;;;7.60;6.77;;;3.90;99.90;;;;;;6123424;23;20414;-79
2021/01/08 04:44:10;;;;;;;7.10;6.40;;;3.90;99.90;;;;;;6146838;23;20431;-81
2021/01/08 04:46:36;;;;;;;8.17;6.70;;;3.90;99.90;;;;;;6121584;23;20407;-80
2021/01/08 04:49:07;;;;;;;7.63;6.83;;;3.90;99.90;;;;;;6121659;23;20442;-79
2021/01/08 04:51:37;;;;;;;7.47;6.50;;;3.80;99.90;;;;;;6121091;23;20470;-81
2021/01/08 04:54:05;;;;;;;7.43;6.70;;;3.80;99.90;;;;;;6148939;23;20454;-82
2021/01/08 04:56:49;;;;;;;7.70;5.97;;;3.80;99.90;;;;;;6145818;23;20894;-81
2021/01/08 04:59:16;;;;;;;7.83;6.00;;;3.80;99.90;;;;;;6155878;23;20893;-80
2021/01/08 05:01:42;;;;;;;8.63;6.43;;;3.90;99.90;;;;;;6127776;23;20411;-80
2021/01/08 05:04:09;;;;;;;7.70;6.50;;;3.90;99.90;;;;;;6127065;23;20816;-81
2021/01/08 05:06:36;;;;;;;7.20;6.60;;;3.90;99.90;;;;;;6130639;23;20514;-80
2021/01/08 05:09:02;;;;;;;7.70;6.80;;;3.90;99.90;;;;;;6131222;23;20493;-79
2021/01/08 05:11:30;;;;;;;7.30;6.03;;;3.90;99.90;;;;;;6126820;23;20438;-81
2021/01/08 05:13:58;;;;;;;7.10;6.07;;;3.90;99.90;;;;;;6148764;23;20446;-80
2021/01/08 05:16:27;;;;;;;7.40;6.20;;;3.90;99.90;;;;;;6121992;23;20662;-81
2021/01/08 05:18:55;;;;;;;7.20;6.10;;;3.90;99.90;;;;;;6147041;23;20391;-80
2021/01/08 05:21:25;;;;;;;6.50;5.87;;;3.90;99.90;;;;;;6122264;23;20525;-81
2021/01/08 05:23:55;;;;;;;7.90;6.50;;;3.90;99.90;;;;;;6121038;23;20435;-82
2021/01/08 05:26:22;;;;;;;8.20;6.30;;;4.00;99.90;;;;;;6122232;23;20423;-80
2021/01/08 05:28:55;;;;;;;7.07;6.37;;;3.90;99.90;;;;;;6120778;23;20422;-79
2021/01/08 05:31:25;;;;;;;6.40;5.40;;;3.90;99.90;;;;;;6148769;23;20709;-82
2021/01/08 05:33:52;;;;;;;6.93;5.87;;;3.90;99.90;;;;;;6148546;23;20553;-80
2021/01/08 05:36:20;;;;;;;5.30;4.80;;;3.90;99.90;;;;;;6121778;23;20474;-80
2021/01/08 05:38:49;;;;;;;7.50;5.97;;;4.00;99.90;;;;;;6148003;23;20421;-82
2021/01/08 05:41:18;;;;;;;6.20;5.40;;;3.90;99.90;;;;;;6145558;23;20961;-80
2021/01/08 05:43:46;;;;;;;6.43;5.77;;;3.90;99.90;;;;;;6146207;23;21058;-83
2021/01/08 05:46:14;;;;;;;5.07;4.40;;;3.90;99.90;;;;;;6121104;23;20421;-83
2021/01/08 05:49:01;;;;;;;6.00;4.80;;;4.00;99.90;;;;;;6119609;23;20507;-82
2021/01/08 05:51:31;;;;;;;4.90;4.40;;;4.00;99.90;;;;;;6146711;23;20418;-82
2021/01/08 05:54:01;;;;;;;5.70;5.10;;;4.00;99.90;;;;;;6150205;23;20447;-81
2021/01/08 05:56:31;;;;;;;5.40;4.90;;;4.00;99.90;;;;;;6147097;23;20417;-79
2021/01/08 05:58:57;;;;;;;5.80;5.10;;;3.90;99.90;;;;;;6146681;23;20422;-82
2021/01/08 06:01:23;;;;;;;8.20;5.20;;;3.90;99.90;;;;;;6121079;23;20919;-84
2021/01/08 06:03:52;;;;;;;5.30;4.80;;;3.90;99.90;;;;;;6121215;23;20439;-82
2021/01/08 06:06:23;;;;;;;4.47;4.03;;;3.90;99.90;;;;;;6144491;23;20887;-81
2021/01/08 06:08:54;;;;;;;5.33;4.83;;;3.90;99.90;;;;;;6148719;23;20403;-80
2021/01/08 06:11:26;;;;;;;5.73;5.23;;;3.90;99.90;;;;;;6121425;23;20417;-81
2021/01/08 06:13:55;;;;;;;6.30;4.70;;;3.90;99.90;;;;;;6126914;23;20684;-81
2021/01/08 06:16:22;;;;;;;4.53;4.00;;;3.90;99.90;;;;;;6123154;23;20414;-81
2021/01/08 06:18:51;;;;;;;5.63;5.13;;;3.90;99.90;;;;;;6150286;23;21009;-80
2021/01/08 06:21:18;;;;;;;5.37;4.70;;;4.00;99.90;;;;;;6152312;23;20395;-81
2021/01/08 06:23:48;;;;;;;5.33;4.83;;;3.90;99.90;;;;;;6146773;23;20833;-83
2021/01/08 06:26:19;;;;;;;5.20;4.40;;;3.90;99.90;;;;;;6119446;23;20810;-80
2021/01/08 06:28:47;;;;;;;5.33;4.60;;;3.90;99.90;;;;;;6152658;23;20407;-80
2021/01/08 06:31:22;;;;;;;5.87;5.07;;;3.90;99.90;;;;;;6164134;23;20399;-77
2021/01/08 06:33:58;;;;;;;3.50;3.20;;;4.00;99.90;;;;;;6144729;23;20630;-78
2021/01/08 06:36:32;;;;;;;5.73;4.93;;;4.00;99.90;;;;;;6169176;23;20395;-79
2021/01/08 06:39:06;;;;;;;4.67;4.27;;;3.90;99.90;;;;;;6136167;23;20403;-78
2021/01/08 06:41:32;;;;;;;4.73;4.33;;;3.90;99.90;;;;;;6149487;23;20391;-80
2021/01/08 06:44:06;;;;;;;4.40;4.00;;;4.00;99.90;;;;;;6135268;23;20419;-78
2021/01/08 06:46:37;;;;;;;5.00;4.60;;;3.90;99.90;;;;;;6145454;23;20498;-80
2021/01/08 06:49:07;;;;;;;6.67;5.40;;;3.90;99.90;;;;;;6170132;23;20407;-79
2021/01/08 06:51:35;;;;;;;5.73;5.23;;;3.90;99.90;;;;;;6169018;23;20394;-77
2021/01/08 06:54:07;;;;;;;4.37;3.97;;;3.90;99.90;;;;;;6156718;23;20450;-81
2021/01/08 06:56:41;;;;;;;4.70;4.30;;;3.90;99.90;;;;;;6122846;23;20475;-79
2021/01/08 06:59:21;;;;;;;4.80;4.40;;;3.90;99.90;;;;;;6153855;23;20434;-80
2021/01/08 07:01:52;;;;;;;6.57;5.27;;;4.00;99.90;;;;;;6124330;23;20493;-80
2021/01/08 07:04:29;;;;;;;5.50;4.97;;;4.00;99.90;;;;;;6152886;23;20462;-79
2021/01/08 07:06:58;;;;;;;7.00;4.70;;;4.00;99.90;;;;;;6125630;23;20399;-80
2021/01/08 07:09:34;;;;;;;4.60;4.20;;;4.00;99.90;;;;;;6124385;23;20499;-80
2021/01/08 07:12:01;;;;;;;5.07;4.57;;;4.00;99.90;;;;;;6123682;23;20395;-79
2021/01/08 07:14:27;;;;;;;5.30;4.80;;;4.00;99.90;;;;;;6148179;23;20452;-78
2021/01/08 07:16:59;;;;;;;5.43;4.80;;;4.00;99.90;;;;;;6122047;23;20411;-80
2021/01/08 07:19:28;;;;;;;5.70;5.07;;;4.00;99.90;;;;;;6147363;23;20899;-82
2021/01/08 07:21:56;;;;;;;5.63;5.13;;;4.00;99.90;;;;;;6125520;23;20731;-81
2021/01/08 07:24:35;;;;;;;7.30;5.57;;;3.90;99.90;;;;;;6124354;23;20434;-80
2021/01/08 07:27:26;;;;;;;5.97;5.33;;;3.90;99.90;;;;;;6150511;23;20395;-82
2021/01/08 07:29:56;;;;;;;5.33;4.83;;;3.90;99.90;;;;;;6124362;23;20405;-82
2021/01/08 07:32:51;;;;;;;5.00;4.60;;;3.90;99.90;;;;;;6123666;23;20410;-82
2021/01/08 07:35:26;;;;;;;5.60;5.03;;;4.00;99.90;;;;;;6123590;23;20438;-82
2021/01/08 07:38:05;;;;;;;6.10;5.50;;;3.90;99.90;;;;;;6124048;23;20402;-81
2021/01/08 07:40:34;;;;;;;6.70;6.10;;;3.90;99.90;;;;;;6124654;23;20426;-81
2021/01/08 07:43:05;;;;;;;6.20;5.70;;;3.90;99.90;;;;;;6123943;23;20445;-82
2021/01/08 07:46:04;;;;;;;5.57;5.13;;;3.90;99.90;;;;;;6151654;23;20863;-78
2021/01/08 07:48:38;;;;;;;6.13;5.60;;;3.90;99.90;;;;;;6070144;23;20418;-81
2021/01/08 07:51:06;;;;;;;5.63;5.13;;;3.90;99.90;;;;;;6148913;23;20441;-78
2021/01/08 07:53:42;;;;;;;5.80;5.30;;;4.00;99.90;;;;;;6122856;23;20451;-78
2021/01/08 07:56:24;;;;;;;6.20;5.67;;;4.00;99.90;;;;;;6148323;23;20804;-79
2021/01/08 07:58:58;;;;;;;17.60;16.30;;;4.00;99.90;;;;;;6149922;23;20399;-79
2021/01/08 08:01:24;;;;;;;5.93;5.33;;;3.90;99.90;;;;;;6149550;23;20403;-79
2021/01/08 08:04:10;;;;;;;5.40;4.90;;;4.00;99.90;;;;;;6149174;23;20483;-78
2021/01/08 08:06:39;;;;;;;5.23;4.83;;;4.00;99.90;;;;;;6123540;23;20451;-79
2021/01/08 08:09:07;;;;;;;5.20;4.70;;;4.00;99.90;;;;;;6150679;23;20415;-79
2021/01/08 08:11:36;;;;;;;5.60;5.10;;;4.10;99.90;;;;;;6130646;23;20434;-80
2021/01/08 08:14:13;;;;;;;6.47;5.87;;;4.10;99.90;;;;;;6154670;23;20439;-80
2021/01/08 08:16:40;;;;;;;5.80;4.47;;;4.10;99.90;;;;;;6134706;23;20387;-82
2021/01/08 08:19:09;;;;;;;5.73;5.20;;;4.10;99.90;;;;;;6131138;23;20742;-81
2021/01/08 08:21:37;;;;;;;5.77;5.27;;;4.10;99.90;;;;;;6127519;23;20407;-81
2021/01/08 08:24:05;;;;;;;5.10;4.70;;;4.10;99.90;;;;;;6158235;23;20434;-81
2021/01/08 08:26:33;;;;;;;6.93;5.70;;;4.10;99.90;;;;;;6155293;23;20454;-80
2021/01/08 08:29:04;;;;;;;6.80;6.20;;;4.20;99.90;;;;;;6158689;23;20402;-82
2021/01/08 08:31:32;;;;;;;6.60;5.93;;;4.20;99.90;;;;;;6128390;23;20490;-80
2021/01/08 08:33:59;;;;;;;6.60;5.93;;;4.10;99.90;;;;;;6152377;23;20474;-81
2021/01/08 08:36:27;;;;;;;6.97;6.37;;;4.10;99.90;;;;;;6153890;23;20534;-81
2021/01/08 08:39:00;;;;;;;6.40;5.80;;;4.10;99.90;;;;;;6151993;23;20407;-81
2021/01/08 08:41:28;;;;;;;6.70;6.03;;;4.10;99.90;;;;;;6132014;23;20409;-81
2021/01/08 08:44:44;;;;;;;10.00;9.00;;;4.10;99.90;;;;;;6161341;23;20533;-82
2021/01/08 08:47:11;;;;;;;7.20;6.50;;;4.10;99.90;;;;;;6149459;23;20498;-80
2021/01/08 08:49:44;;;;;;;7.80;6.60;;;4.00;99.90;;;;;;6163770;23;20447;-81
2021/01/08 08:52:10;;;;;;;6.83;6.13;;;3.90;99.90;;;;;;6131830;23;20762;-81
2021/01/08 08:54:37;;;;;;;8.40;7.30;;;4.00;99.90;;;;;;6157079;23;20507;-81
2021/01/08 08:57:05;;;;;;;7.63;6.83;;;4.00;99.90;;;;;;6133893;23;20497;-80
2021/01/08 08:59:39;;;;;;;8.67;7.37;;;4.00;99.90;;;;;;6160347;23;20415;-82
2021/01/08 09:02:25;;;;;;;8.20;7.00;;;4.10;99.90;;;;;;6166189;23;20509;-79
2021/01/08 09:04:59;;;;;;;9.77;7.77;;;4.10;99.90;;;;;;6165043;23;20832;-82
2021/01/08 09:07:47;;;;;;;7.83;7.10;;;4.10;99.90;;;;;;6160474;23;20413;-82
2021/01/08 09:10:28;;;;;;;9.20;8.00;;;4.10;99.90;;;;;;6137741;23;20462;-78
2021/01/08 09:13:10;;;;;;;9.60;8.57;;;4.10;99.90;;;;;;6171332;23;20562;-81
2021/01/08 09:15:48;;;;;;;10.67;8.90;;;4.10;99.90;;;;;;6145271;23;20388;-82
2021/01/08 09:18:49;;;;;;;11.63;8.77;;;4.20;99.90;;;;;;6133635;23;20462;-81
2021/01/08 09:21:26;;;;;;;10.20;8.90;;;4.20;99.90;;;;;;6129209;23;20485;-80
2021/01/08 09:23:54;;;;;;;14.20;7.63;;;4.10;99.90;;;;;;6156802;23;20498;-78
2021/01/08 09:26:21;;;;;;;9.90;8.20;;;4.10;99.90;;;;;;6159559;23;20433;-80
2021/01/08 09:28:53;;;;;;;10.20;8.47;;;4.20;99.90;;;;;;6135002;23;20415;-78
2021/01/08 09:31:20;;;;;;;9.80;8.50;;;4.20;99.90;;;;;;6159481;23;20429;-79
2021/01/08 09:33:57;;;;;;;11.10;9.17;;;4.10;99.90;;;;;;6162476;23;20447;-78
2021/01/08 09:36:38;;;;;;;11.47;9.47;;;4.20;99.90;;;;;;6159161;23;20922;-81
2021/01/08 09:39:09;;;;;;;11.60;9.77;;;4.20;99.90;;;;;;6133875;23;20387;-79
2021/01/08 09:41:38;;;;;;;9.57;7.70;;;4.20;99.90;;;;;;6157685;23;20395;-79
2021/01/08 09:44:06;;;;;;;8.53;7.53;;;4.30;99.90;;;;;;6159045;23;20473;-80
2021/01/08 09:46:49;;;;;;;11.10;9.30;;;4.30;99.90;;;;;;6140279;23;20407;-79
2021/01/08 09:49:15;;;;;;;10.70;8.80;;;4.30;99.90;;;;;;6166789;23;20391;-80
2021/01/08 09:51:42;;;;;;;10.17;8.33;;;4.40;99.90;;;;;;6170332;23;20425;-80
2021/01/08 09:54:10;;;;;;;9.47;8.10;;;4.40;99.90;;;;;;6165759;23;20443;-79
2021/01/08 09:56:36;;;;;;;10.77;9.00;;;4.40;99.90;;;;;;6166046;23;20415;-82
2021/01/08 09:59:14;;;;;;;8.20;7.30;;;4.40;99.90;;;;;;6161826;23;20470;-78
2021/01/08 10:02:00;;;;;;;10.50;7.90;;;4.50;99.90;;;;;;6167634;23;20426;-85
2021/01/08 10:04:32;;;;;;;14.00;9.03;;;4.60;99.90;;;;;;6135065;23;20433;-82
2021/01/08 10:07:06;;;;;;;10.23;8.43;;;4.70;99.90;;;;;;6160414;23;20414;-81
2021/01/08 10:09:49;;;;;;;10.47;8.97;;;4.70;99.90;;;;;;6158306;23;20402;-81
2021/01/08 10:12:22;;;;;;;10.80;8.87;;;4.70;99.90;;;;;;6161378;23;20402;-81
2021/01/08 10:14:48;;;;;;;9.77;8.50;;;4.80;99.90;;;;;;6162493;23;20482;-80
2021/01/08 10:17:18;;;;;;;10.50;8.70;;;4.80;99.90;;;;;;6161949;23;20407;-82
2021/01/08 10:19:46;;;;;;;9.60;8.60;;;4.80;99.90;;;;;;6159748;23;20415;-80
2021/01/08 10:24:42;;;;;;;9.27;7.70;;;4.80;99.90;;;;;;6191861;23;20479;-81
2021/01/08 10:27:08;;;;;;;9.80;8.07;;;4.90;99.90;;;;;;6197250;23;20957;-80
2021/01/08 10:29:38;;;;;;;9.63;6.90;;;5.00;99.90;;;;;;6189466;23;20977;-82
2021/01/08 10:32:12;;;;;;;7.87;7.00;;;5.00;99.90;;;;;;6190652;23;20406;-78
2021/01/08 10:34:43;;;;;;;9.20;7.10;;;5.00;99.90;;;;;;6161099;23;20431;-80
2021/01/08 10:37:17;;;;;;;6.80;6.10;;;4.90;99.90;;;;;;6165130;23;20455;-81
2021/01/08 10:39:45;;;;;;;7.47;6.70;;;4.90;99.90;;;;;;6158843;23;20425;-84
2021/01/08 10:42:11;;;;;;;7.73;6.53;;;4.80;99.90;;;;;;6157071;23;20399;-82
2021/01/08 10:44:45;;;;;;;8.10;6.03;;;4.80;99.90;;;;;;6155174;23;20395;-83
2021/01/08 10:47:11;;;;;;;7.00;5.70;;;4.80;99.90;;;;;;6157484;23;20411;-81
2021/01/08 10:49:54;;;;;;;10.00;6.47;;;4.80;99.90;;;;;;6155298;23;20409;-80
2021/01/08 10:52:20;;;;;;;8.33;6.73;;;4.80;99.90;;;;;;6183987;23;20411;-84
2021/01/08 10:54:46;;;;;;;7.40;6.60;;;4.80;99.90;;;;;;6156168;23;20989;-83
2021/01/08 10:57:13;;;;;;;10.33;7.83;;;4.90;99.90;;;;;;6157637;23;20909;-85
2021/01/08 10:59:39;;;;;;;9.90;7.90;;;4.90;99.90;;;;;;6160304;23;20417;-82
2021/01/08 11:02:06;;;;;;;10.80;8.07;;;4.90;99.90;;;;;;6159027;23;20501;-85
2021/01/08 11:04:39;;;;;;;8.53;7.63;;;4.90;99.90;;;;;;6164524;23;20426;-79
2021/01/08 11:07:05;;;;;;;9.17;7.00;;;4.80;99.90;;;;;;6167821;23;20411;-81
2021/01/08 11:09:32;;;;;;;12.33;8.30;;;4.80;99.90;;;;;;6164275;23;20450;-81
2021/01/08 11:11:58;;;;;;;9.73;7.77;;;4.90;99.90;;;;;;6164535;23;20510;-81
2021/01/08 11:14:24;;;;;;;14.30;7.83;;;5.00;99.90;;;;;;6152665;23;21005;-81
2021/01/08 11:16:50;;;;;;;10.73;8.20;;;5.00;99.90;;;;;;6156442;23;20411;-79
2021/01/08 11:19:17;;;;;;;10.00;8.40;;;5.00;99.90;;;;;;6161474;23;20415;-80
2021/01/08 11:21:43;;;;;;;9.67;8.23;;;5.00;99.90;;;;;;6163794;23;20421;-82
2021/01/08 11:24:09;;;;;;;10.37;8.07;;;5.00;99.90;;;;;;6166006;23;20454;-82
2021/01/08 11:26:35;;;;;;;9.93;8.53;;;4.90;99.90;;;;;;6163116;23;20414;-83
2021/01/08 11:29:01;;;;;;;10.77;9.10;;;5.00;99.90;;;;;;6161104;23;20498;-82
2021/01/08 11:31:38;;;;;;;12.70;9.57;;;5.10;99.90;;;;;;6179678;23;20481;-80
2021/01/08 11:34:09;;;;;;;13.67;10.57;;;5.10;99.90;;;;;;6160119;23;20446;-81
2021/01/08 11:36:38;;;;;;;11.70;10.13;;;5.00;99.90;;;;;;6162930;23;20379;-79
2021/01/08 11:39:06;;;;;;;11.87;8.63;;;5.00;99.90;;;;;;6153547;23;20429;-82
2021/01/08 11:41:54;;;;;;;9.83;7.93;;;4.90;99.90;;;;;;6159156;23;20485;-84
2021/01/08 11:44:23;;;;;;;12.50;8.33;;;5.00;99.90;;;;;;6156339;23;20926;-82
2021/01/08 11:46:50;;;;;;;9.57;8.00;;;5.00;99.90;;;;;;6151434;23;20479;-80
2021/01/08 11:49:17;;;;;;;10.17;8.17;;;4.90;99.90;;;;;;6157635;23;20415;-78
2021/01/08 11:51:44;;;;;;;11.70;8.70;;;5.00;99.90;;;;;;6162686;23;20411;-82
2021/01/08 11:54:11;;;;;;;9.27;7.60;;;5.00;99.90;;;;;;6157787;23;20855;-84
2021/01/08 11:56:37;;;;;;;12.67;8.13;;;5.00;99.90;;;;;;6161170;23;20402;-81
2021/01/08 11:59:04;;;;;;;12.23;8.00;;;5.10;99.90;;;;;;6162292;23;20438;-79
2021/01/08 12:01:31;;;;;;;9.33;7.17;;;5.10;99.90;;;;;;6185321;23;20391;-83
2021/01/08 12:04:00;;;;;;;11.20;7.47;;;5.30;99.90;;;;;;6157590;23;20498;-86
2021/01/08 12:06:29;;;;;;;9.83;7.20;;;5.20;99.90;;;;;;6159056;23;20407;-83
2021/01/08 12:09:02;;;;;;;10.20;7.80;;;5.20;99.90;;;;;;6161905;23;20498;-89
2021/01/08 12:11:31;;;;;;;9.47;7.87;;;5.20;99.90;;;;;;6160670;23;20434;-84
2021/01/08 12:13:58;;;;;;;8.90;7.80;;;5.10;99.90;;;;;;6160825;23;20481;-83
2021/01/08 12:16:28;;;;;;;8.13;7.30;;;5.00;99.90;;;;;;6166864;23;20390;-84
2021/01/08 12:19:00;;;;;;;7.40;6.70;;;5.00;99.90;;;;;;6174339;23;20411;-85
2021/01/08 12:21:29;;;;;;;8.23;7.43;;;4.90;99.90;;;;;;6174202;23;20415;-85
2021/01/08 12:24:02;;;;;;;8.43;7.40;;;5.00;99.90;;;;;;6172028;23;21242;-84
2021/01/08 12:26:29;;;;;;;6.40;5.60;;;4.90;99.90;;;;;;6172476;23;20402;-84
2021/01/08 12:28:55;;;;;;;7.27;6.57;;;4.90;99.90;;;;;;6173430;23;20656;-84
2021/01/08 12:31:27;;;;;;;7.33;6.20;;;5.00;99.90;;;;;;6172316;23;20450;-83
2021/01/08 12:34:14;;;;;;;7.93;6.30;;;5.00;99.90;;;;;;6170762;23;20450;-81
2021/01/08 12:36:56;;;;;;;8.00;6.63;;;5.00;99.90;;;;;;6170883;23;20417;-80
2021/01/08 12:40:44;;;;;;;7.37;6.47;;;5.10;99.90;;;;;;6171546;23;20387;-81
2021/01/08 12:43:47;;;;;;;;;;;;;;;;;;;;;
2021/01/08 12:47:07;;;;;;;6.50;5.80;;;4.90;99.90;;;;;;6158336;23;20426;-81
2021/01/08 12:50:03;;;;;;;6.90;5.83;;;4.90;99.90;;;;;;5983587;23;20414;-80
2021/01/08 13:03:35;;;;;;;8.33;7.13;;;4.90;99.90;;;;;;5808747;24;20763;-80
2021/01/08 13:07:17;;;;;;;7.30;6.00;;;5.00;99.90;;;;;;5814255;24;20418;-80
2021/01/08 13:09:47;;;;;;;10.17;6.50;;;5.00;99.90;;;;;;5940795;24;21068;-83
2021/01/08 13:12:26;;;;;;;7.40;6.60;;;5.00;99.90;;;;;;5951766;24;20461;-79
2021/01/08 13:20:11;;;;;;;7.53;6.53;;;5.00;99.90;;;;;;6039393;23;20486;-80
2021/01/08 13:22:46;;;;;;;7.37;6.57;;;5.10;99.90;;;;;;6048053;23;20445;-82
2021/01/08 13:25:12;;;;;;;8.00;6.87;;;5.10;99.90;;;;;;6067871;23;20421;-80
2021/01/08 13:27:38;;;;;;;8.03;7.00;;;5.10;99.90;;;;;;6098470;23;20482;-79
2021/01/08 13:30:19;;;;;;;8.97;7.63;;;5.00;99.90;;;;;;6072233;23;20413;-77
2021/01/08 13:32:46;;;;;;;8.73;7.00;;;5.00;99.90;;;;;;6069483;23;20462;-80
2021/01/08 13:35:12;;;;;;;8.60;6.93;;;5.00;99.90;;;;;;6070313;23;20429;-80